sensor_id;sensor_type;location;lat;lon;timestamp;pressure;altitude;pressure_sealevel;temperature
69704;BMP280;56967;43.538;-5.646;2023-04-01T00:02:17;101863.44;;;17.17
69704;BMP280;56967;43.538;-5.646;2023-04-01T00:04:42;101879.59;;;17.16
69704;BMP280;56967;43.538;-5.646;2023-04-01T00:07:08;101881.44;;;17.15
69704;BMP280;56967;43.538;-5.646;2023-04-01T00:09:34;101883.69;;;17.18
69704;BMP280;56967;43.538;-5.646;2023-04-01T00:12:00;101875.47;;;17.08
69704;BMP280;56967;43.538;-5.646;2023-04-01T00:14:26;101871.03;;;17.02
69704;BMP280;56967;43.538;-5.646;2023-04-01T00:16:51;101868.03;;;16.99
69704;BMP280;56967;43.538;-5.646;2023-04-01T00:19:18;101862.84;;;17.04
69704;BMP280;56967;43.538;-5.646;2023-04-01T00:21:43;101852.91;;;17.11
69704;BMP280;56967;43.538;-5.646;2023-04-01T00:24:09;101856.38;;;17.11
69704;BMP280;56967;43.538;-5.646;2023-04-01T00:26:34;101850.41;;;17.04
69704;BMP280;56967;43.538;-5.646;2023-04-01T00:29:00;101849.44;;;16.99
69704;BMP280;56967;43.538;-5.646;2023-04-01T00:31:26;101850.72;;;17.08
69704;BMP280;56967;43.538;-5.646;2023-04-01T00:33:52;101846.00;;;17.10
69704;BMP280;56967;43.538;-5.646;2023-04-01T00:36:19;101854.88;;;17.15
69704;BMP280;56967;43.538;-5.646;2023-04-01T00:38:46;101867.94;;;17.17
69704;BMP280;56967;43.538;-5.646;2023-04-01T00:41:13;101864.94;;;17.13
69704;BMP280;56967;43.538;-5.646;2023-04-01T00:43:41;101851.19;;;17.16
69704;BMP280;56967;43.538;-5.646;2023-04-01T00:46:07;101845.88;;;17.16
69704;BMP280;56967;43.538;-5.646;2023-04-01T00:48:38;101855.47;;;17.17
69704;BMP280;56967;43.538;-5.646;2023-04-01T00:51:09;101846.69;;;17.17
69704;BMP280;56967;43.538;-5.646;2023-04-01T00:53:39;101834.22;;;17.29
69704;BMP280;56967;43.538;-5.646;2023-04-01T00:59:10;101833.75;;;17.09
69704;BMP280;56967;43.538;-5.646;2023-04-01T01:01:36;101835.94;;;17.12
69704;BMP280;56967;43.538;-5.646;2023-04-01T01:04:02;101831.91;;;17.09
69704;BMP280;56967;43.538;-5.646;2023-04-01T01:11:48;101793.72;;;16.81
69704;BMP280;56967;43.538;-5.646;2023-04-01T01:22:32;101784.25;;;16.85
69704;BMP280;56967;43.538;-5.646;2023-04-01T01:27:39;101785.91;;;16.86
69704;BMP280;56967;43.538;-5.646;2023-04-01T01:30:23;101783.59;;;16.89
69704;BMP280;56967;43.538;-5.646;2023-04-01T01:36:09;101790.50;;;16.90
69704;BMP280;56967;43.538;-5.646;2023-04-01T01:38:37;101810.16;;;16.89
69704;BMP280;56967;43.538;-5.646;2023-04-01T01:41:05;101822.06;;;16.87
69704;BMP280;56967;43.538;-5.646;2023-04-01T01:43:36;101817.19;;;16.84
69704;BMP280;56967;43.538;-5.646;2023-04-01T01:46:11;101819.13;;;16.77
69704;BMP280;56967;43.538;-5.646;2023-04-01T01:48:37;101817.19;;;16.84
69704;BMP280;56967;43.538;-5.646;2023-04-01T01:51:05;101829.56;;;16.90
69704;BMP280;56967;43.538;-5.646;2023-04-01T01:53:31;101830.03;;;16.98
69704;BMP280;56967;43.538;-5.646;2023-04-01T01:55:57;101833.72;;;16.97
69704;BMP280;56967;43.538;-5.646;2023-04-01T01:58:32;101834.91;;;17.01
69704;BMP280;56967;43.538;-5.646;2023-04-01T02:01:08;101826.13;;;17.01
69704;BMP280;56967;43.538;-5.646;2023-04-01T02:03:36;101839.50;;;16.94
69704;BMP280;56967;43.538;-5.646;2023-04-01T02:06:04;101829.22;;;16.98
69704;BMP280;56967;43.538;-5.646;2023-04-01T02:08:35;101823.22;;;17.02
69704;BMP280;56967;43.538;-5.646;2023-04-01T02:11:07;101824.16;;;16.96
69704;BMP280;56967;43.538;-5.646;2023-04-01T02:16:12;101814.09;;;16.98
69704;BMP280;56967;43.538;-5.646;2023-04-01T02:18:39;101805.31;;;16.86
69704;BMP280;56967;43.538;-5.646;2023-04-01T02:21:06;101798.28;;;16.92
69704;BMP280;56967;43.538;-5.646;2023-04-01T02:23:36;101793.06;;;16.97
69704;BMP280;56967;43.538;-5.646;2023-04-01T02:26:05;101782.09;;;16.82
69704;BMP280;56967;43.538;-5.646;2023-04-01T02:28:32;101767.69;;;16.48
69704;BMP280;56967;43.538;-5.646;2023-04-01T02:30:59;101737.53;;;16.31
69704;BMP280;56967;43.538;-5.646;2023-04-01T02:33:27;101737.47;;;16.49
69704;BMP280;56967;43.538;-5.646;2023-04-01T02:35:53;101714.13;;;16.39
69704;BMP280;56967;43.538;-5.646;2023-04-01T02:38:19;101701.75;;;16.33
69704;BMP280;56967;43.538;-5.646;2023-04-01T02:40:50;101728.69;;;16.37
69704;BMP280;56967;43.538;-5.646;2023-04-01T02:43:16;101735.34;;;16.39
69704;BMP280;56967;43.538;-5.646;2023-04-01T02:45:43;101752.44;;;16.32
69704;BMP280;56967;43.538;-5.646;2023-04-01T02:48:09;101770.56;;;16.05
69704;BMP280;56967;43.538;-5.646;2023-04-01T02:50:34;101758.53;;;16.02
69704;BMP280;56967;43.538;-5.646;2023-04-01T02:53:01;101751.84;;;16.00
69704;BMP280;56967;43.538;-5.646;2023-04-01T02:55:29;101735.66;;;15.90
69704;BMP280;56967;43.538;-5.646;2023-04-01T02:57:55;101720.28;;;15.92
69704;BMP280;56967;43.538;-5.646;2023-04-01T03:00:21;101713.16;;;15.92
69704;BMP280;56967;43.538;-5.646;2023-04-01T03:02:46;101702.94;;;15.96
69704;BMP280;56967;43.538;-5.646;2023-04-01T03:05:12;101697.38;;;15.97
69704;BMP280;56967;43.538;-5.646;2023-04-01T03:07:38;101688.41;;;15.98
69704;BMP280;56967;43.538;-5.646;2023-04-01T03:10:04;101687.69;;;15.91
69704;BMP280;56967;43.538;-5.646;2023-04-01T03:12:30;101669.75;;;16.05
69704;BMP280;56967;43.538;-5.646;2023-04-01T03:14:56;101682.09;;;16.11
69704;BMP280;56967;43.538;-5.646;2023-04-01T03:17:21;101677.25;;;16.08
69704;BMP280;56967;43.538;-5.646;2023-04-01T03:19:47;101667.78;;;16.01
69704;BMP280;56967;43.538;-5.646;2023-04-01T03:22:12;101651.88;;;16.01
69704;BMP280;56967;43.538;-5.646;2023-04-01T03:24:38;101652.13;;;16.11
69704;BMP280;56967;43.538;-5.646;2023-04-01T03:27:03;101643.34;;;16.10
69704;BMP280;56967;43.538;-5.646;2023-04-01T03:29:29;101645.75;;;16.00
69704;BMP280;56967;43.538;-5.646;2023-04-01T03:31:54;101648.06;;;16.08
69704;BMP280;56967;43.538;-5.646;2023-04-01T03:34:23;101641.88;;;16.14
69704;BMP280;56967;43.538;-5.646;2023-04-01T03:36:49;101656.72;;;16.15
69704;BMP280;56967;43.538;-5.646;2023-04-01T03:39:14;101652.25;;;16.16
69704;BMP280;56967;43.538;-5.646;2023-04-01T03:41:44;101650.97;;;16.18
69704;BMP280;56967;43.538;-5.646;2023-04-01T03:44:11;101642.22;;;16.18
69704;BMP280;56967;43.538;-5.646;2023-04-01T03:46:36;101648.09;;;16.20
69704;BMP280;56967;43.538;-5.646;2023-04-01T03:49:02;101639.22;;;16.26
69704;BMP280;56967;43.538;-5.646;2023-04-01T03:51:28;101636.66;;;16.19
69704;BMP280;56967;43.538;-5.646;2023-04-01T03:53:53;101654.22;;;16.20
69704;BMP280;56967;43.538;-5.646;2023-04-01T03:56:19;101667.94;;;16.17
69704;BMP280;56967;43.538;-5.646;2023-04-01T03:58:44;101665.06;;;16.19
69704;BMP280;56967;43.538;-5.646;2023-04-01T04:01:18;101657.09;;;16.19
69704;BMP280;56967;43.538;-5.646;2023-04-01T04:03:45;101677.09;;;15.91
69704;BMP280;56967;43.538;-5.646;2023-04-01T04:06:15;101725.41;;;15.75
69704;BMP280;56967;43.538;-5.646;2023-04-01T04:08:41;101738.66;;;15.93
69704;BMP280;56967;43.538;-5.646;2023-04-01T04:11:07;101759.00;;;15.81
69704;BMP280;56967;43.538;-5.646;2023-04-01T04:13:33;101774.81;;;15.88
69704;BMP280;56967;43.538;-5.646;2023-04-01T04:15:58;101778.53;;;15.87
69704;BMP280;56967;43.538;-5.646;2023-04-01T04:18:24;101775.56;;;15.95
69704;BMP280;56967;43.538;-5.646;2023-04-01T04:20:50;101778.75;;;15.85
69704;BMP280;56967;43.538;-5.646;2023-04-01T04:23:17;101782.03;;;15.81
69704;BMP280;56967;43.538;-5.646;2023-04-01T04:26:01;101792.22;;;15.84
69704;BMP280;56967;43.538;-5.646;2023-04-01T04:28:27;101802.00;;;15.83
69704;BMP280;56967;43.538;-5.646;2023-04-01T04:30:53;101827.31;;;15.61
69704;BMP280;56967;43.538;-5.646;2023-04-01T04:33:19;101833.13;;;15.70
69704;BMP280;56967;43.538;-5.646;2023-04-01T04:35:45;101837.44;;;15.89
69704;BMP280;56967;43.538;-5.646;2023-04-01T04:38:10;101866.69;;;15.82
69704;BMP280;56967;43.538;-5.646;2023-04-01T04:40:37;101865.56;;;15.72
69704;BMP280;56967;43.538;-5.646;2023-04-01T04:43:03;101866.50;;;15.59
69704;BMP280;56967;43.538;-5.646;2023-04-01T04:45:29;101862.56;;;15.68
69704;BMP280;56967;43.538;-5.646;2023-04-01T04:47:55;101854.31;;;15.76
69704;BMP280;56967;43.538;-5.646;2023-04-01T04:50:20;101859.59;;;15.76
69704;BMP280;56967;43.538;-5.646;2023-04-01T04:52:46;101849.66;;;15.72
69704;BMP280;56967;43.538;-5.646;2023-04-01T04:55:11;101836.31;;;15.78
69704;BMP280;56967;43.538;-5.646;2023-04-01T04:57:37;101841.72;;;15.72
69704;BMP280;56967;43.538;-5.646;2023-04-01T05:00:03;101826.97;;;15.76
69704;BMP280;56967;43.538;-5.646;2023-04-01T05:02:29;101828.31;;;15.85
69704;BMP280;56967;43.538;-5.646;2023-04-01T05:04:54;101835.00;;;15.87
69704;BMP280;56967;43.538;-5.646;2023-04-01T05:07:20;101821.47;;;15.95
69704;BMP280;56967;43.538;-5.646;2023-04-01T05:09:46;101825.19;;;15.88
69704;BMP280;56967;43.538;-5.646;2023-04-01T05:12:12;101826.84;;;15.89
69704;BMP280;56967;43.538;-5.646;2023-04-01T05:14:38;101820.28;;;15.91
69704;BMP280;56967;43.538;-5.646;2023-04-01T05:17:07;101814.88;;;15.98
69704;BMP280;56967;43.538;-5.646;2023-04-01T05:19:33;101811.81;;;16.01
69704;BMP280;56967;43.538;-5.646;2023-04-01T05:21:58;101808.22;;;15.95
69704;BMP280;56967;43.538;-5.646;2023-04-01T05:24:24;101811.00;;;16.01
69704;BMP280;56967;43.538;-5.646;2023-04-01T05:26:50;101804.91;;;16.00
69704;BMP280;56967;43.538;-5.646;2023-04-01T05:29:15;101806.94;;;15.98
69704;BMP280;56967;43.538;-5.646;2023-04-01T05:31:40;101812.19;;;16.05
69704;BMP280;56967;43.538;-5.646;2023-04-01T05:34:06;101816.31;;;15.82
69704;BMP280;56967;43.538;-5.646;2023-04-01T05:36:31;101807.94;;;15.97
69704;BMP280;56967;43.538;-5.646;2023-04-01T05:38:57;101818.06;;;15.88
69704;BMP280;56967;43.538;-5.646;2023-04-01T05:41:23;101830.31;;;15.89
69704;BMP280;56967;43.538;-5.646;2023-04-01T05:43:48;101831.59;;;15.80
69704;BMP280;56967;43.538;-5.646;2023-04-01T05:46:14;101845.25;;;15.84
69704;BMP280;56967;43.538;-5.646;2023-04-01T05:48:39;101846.50;;;15.99
69704;BMP280;56967;43.538;-5.646;2023-04-01T05:51:05;101858.28;;;16.04
69704;BMP280;56967;43.538;-5.646;2023-04-01T05:53:31;101867.94;;;15.80
69704;BMP280;56967;43.538;-5.646;2023-04-01T05:55:56;101864.25;;;15.81
69704;BMP280;56967;43.538;-5.646;2023-04-01T05:58:22;101872.72;;;15.89
69704;BMP280;56967;43.538;-5.646;2023-04-01T06:00:47;101874.56;;;15.89
69704;BMP280;56967;43.538;-5.646;2023-04-01T06:03:13;101881.50;;;15.90
69704;BMP280;56967;43.538;-5.646;2023-04-01T06:05:41;101872.34;;;15.86
69704;BMP280;56967;43.538;-5.646;2023-04-01T06:08:15;101881.19;;;15.98
69704;BMP280;56967;43.538;-5.646;2023-04-01T06:13:59;101880.06;;;15.87
69704;BMP280;56967;43.538;-5.646;2023-04-01T06:16:49;101879.31;;;15.62
69704;BMP280;56967;43.538;-5.646;2023-04-01T06:19:40;101877.50;;;15.63
69704;BMP280;56967;43.538;-5.646;2023-04-01T06:25:18;101897.56;;;15.70
69704;BMP280;56967;43.538;-5.646;2023-04-01T06:31:10;101893.44;;;15.99
69704;BMP280;56967;43.538;-5.646;2023-04-01T06:42:32;101896.28;;;15.97
69704;BMP280;56967;43.538;-5.646;2023-04-01T06:48:28;101891.66;;;16.29
69704;BMP280;56967;43.538;-5.646;2023-04-01T06:54:02;101891.91;;;16.57
69704;BMP280;56967;43.538;-5.646;2023-04-01T06:56:29;101909.69;;;16.57
69704;BMP280;56967;43.538;-5.646;2023-04-01T06:59:34;101915.91;;;16.81
69704;BMP280;56967;43.538;-5.646;2023-04-01T07:05:11;101919.66;;;17.44
69704;BMP280;56967;43.538;-5.646;2023-04-01T07:07:46;101941.25;;;18.45
69704;BMP280;56967;43.538;-5.646;2023-04-01T07:10:25;101946.28;;;18.70
69704;BMP280;56967;43.538;-5.646;2023-04-01T07:12:56;101975.81;;;19.30
69704;BMP280;56967;43.538;-5.646;2023-04-01T07:15:36;101961.44;;;19.14
69704;BMP280;56967;43.538;-5.646;2023-04-01T07:18:07;101961.25;;;19.04
69704;BMP280;56967;43.538;-5.646;2023-04-01T07:20:36;101962.84;;;18.32
69704;BMP280;56967;43.538;-5.646;2023-04-01T07:23:06;101973.75;;;18.19
69704;BMP280;56967;43.538;-5.646;2023-04-01T07:25:43;101975.91;;;18.22
69704;BMP280;56967;43.538;-5.646;2023-04-01T07:28:13;101983.56;;;18.30
69704;BMP280;56967;43.538;-5.646;2023-04-01T07:33:20;101980.81;;;18.14
69704;BMP280;56967;43.538;-5.646;2023-04-01T07:43:56;101988.09;;;17.72
69704;BMP280;56967;43.538;-5.646;2023-04-01T07:55:33;101989.03;;;17.77
69704;BMP280;56967;43.538;-5.646;2023-04-01T07:58:31;101987.75;;;17.80
69704;BMP280;56967;43.538;-5.646;2023-04-01T08:06:43;101991.97;;;18.39
69704;BMP280;56967;43.538;-5.646;2023-04-01T08:10:12;101995.53;;;18.44
69704;BMP280;56967;43.538;-5.646;2023-04-01T08:21:02;102066.50;;;25.32
69704;BMP280;56967;43.538;-5.646;2023-04-01T08:23:33;102095.06;;;25.85
69704;BMP280;56967;43.538;-5.646;2023-04-01T08:29:04;102097.50;;;31.64
69704;BMP280;56967;43.538;-5.646;2023-04-01T08:31:55;102090.28;;;28.60
69704;BMP280;56967;43.538;-5.646;2023-04-01T08:34:26;102090.59;;;27.33
69704;BMP280;56967;43.538;-5.646;2023-04-01T08:37:00;102076.47;;;25.03
69704;BMP280;56967;43.538;-5.646;2023-04-01T08:43:02;102083.66;;;22.14
69704;BMP280;56967;43.538;-5.646;2023-04-01T08:54:11;102072.47;;;20.20
69704;BMP280;56967;43.538;-5.646;2023-04-01T09:02:24;102071.56;;;19.31
69704;BMP280;56967;43.538;-5.646;2023-04-01T09:05:24;102074.22;;;19.15
69704;BMP280;56967;43.538;-5.646;2023-04-01T09:07:57;102089.22;;;19.49
69704;BMP280;56967;43.538;-5.646;2023-04-01T09:25:06;102083.47;;;18.33
69704;BMP280;56967;43.538;-5.646;2023-04-01T09:27:45;102091.06;;;18.41
69704;BMP280;56967;43.538;-5.646;2023-04-01T09:33:42;102080.31;;;18.36
69704;BMP280;56967;43.538;-5.646;2023-04-01T09:38:57;102082.16;;;18.35
69704;BMP280;56967;43.538;-5.646;2023-04-01T09:41:31;102082.47;;;18.73
69704;BMP280;56967;43.538;-5.646;2023-04-01T09:57:54;102112.31;;;22.85
69704;BMP280;56967;43.538;-5.646;2023-04-01T10:00:48;102109.41;;;23.52
69704;BMP280;56967;43.538;-5.646;2023-04-01T10:09:04;102110.75;;;23.60
69704;BMP280;56967;43.538;-5.646;2023-04-01T10:17:36;102119.03;;;23.88
69704;BMP280;56967;43.538;-5.646;2023-04-01T10:20:36;102123.25;;;24.14
69704;BMP280;56967;43.538;-5.646;2023-04-01T10:39:33;102119.88;;;24.48
69704;BMP280;56967;43.538;-5.646;2023-04-01T10:47:56;102109.13;;;23.54
69704;BMP280;56967;43.538;-5.646;2023-04-01T11:19:08;102102.91;;;22.11
69704;BMP280;56967;43.538;-5.646;2023-04-01T11:21:59;102092.63;;;22.39
69704;BMP280;56967;43.538;-5.646;2023-04-01T11:24:48;102100.88;;;21.49
69704;BMP280;56967;43.538;-5.646;2023-04-01T11:30:10;102097.13;;;21.87
69704;BMP280;56967;43.538;-5.646;2023-04-01T11:44:14;102098.31;;;20.79
69704;BMP280;56967;43.538;-5.646;2023-04-01T11:59:14;102084.19;;;21.37
69704;BMP280;56967;43.538;-5.646;2023-04-01T12:01:47;102092.19;;;21.06
69704;BMP280;56967;43.538;-5.646;2023-04-01T12:05:17;102094.25;;;20.98
69704;BMP280;56967;43.538;-5.646;2023-04-01T12:13:14;102111.88;;;20.51
69704;BMP280;56967;43.538;-5.646;2023-04-01T12:21:29;102128.97;;;21.47
69704;BMP280;56967;43.538;-5.646;2023-04-01T12:35:02;102117.16;;;21.16
69704;BMP280;56967;43.538;-5.646;2023-04-01T12:37:35;102125.25;;;20.99
69704;BMP280;56967;43.538;-5.646;2023-04-01T12:42:44;102129.94;;;20.44
69704;BMP280;56967;43.538;-5.646;2023-04-01T12:45:33;102137.13;;;20.82
69704;BMP280;56967;43.538;-5.646;2023-04-01T12:54:45;102140.00;;;19.26
69704;BMP280;56967;43.538;-5.646;2023-04-01T13:00:44;102121.78;;;19.06
69704;BMP280;56967;43.538;-5.646;2023-04-01T13:09:33;102136.72;;;19.80
69704;BMP280;56967;43.538;-5.646;2023-04-01T13:14:52;102148.91;;;20.26
69704;BMP280;56967;43.538;-5.646;2023-04-01T13:25:40;102145.56;;;20.52
69704;BMP280;56967;43.538;-5.646;2023-04-01T13:28:32;102155.25;;;20.03
69704;BMP280;56967;43.538;-5.646;2023-04-01T13:39:06;102159.94;;;18.72
69704;BMP280;56967;43.538;-5.646;2023-04-01T13:44:53;102168.78;;;18.38
69704;BMP280;56967;43.538;-5.646;2023-04-01T13:48:02;102178.19;;;17.99
69704;BMP280;56967;43.538;-5.646;2023-04-01T13:51:04;102183.09;;;18.14
69704;BMP280;56967;43.538;-5.646;2023-04-01T13:53:49;102162.97;;;18.29
69704;BMP280;56967;43.538;-5.646;2023-04-01T14:08:08;102186.59;;;17.84
69704;BMP280;56967;43.538;-5.646;2023-04-01T14:13:23;102186.50;;;18.44
69704;BMP280;56967;43.538;-5.646;2023-04-01T14:16:20;102211.06;;;18.92
69704;BMP280;56967;43.538;-5.646;2023-04-01T14:24:29;102203.56;;;20.73
69704;BMP280;56967;43.538;-5.646;2023-04-01T14:32:24;102210.09;;;19.94
69704;BMP280;56967;43.538;-5.646;2023-04-01T14:38:04;102225.38;;;20.49
69704;BMP280;56967;43.538;-5.646;2023-04-01T14:40:56;102218.91;;;20.61
69704;BMP280;56967;43.538;-5.646;2023-04-01T14:49:04;102215.59;;;20.38
69704;BMP280;56967;43.538;-5.646;2023-04-01T14:51:38;102205.91;;;20.32
69704;BMP280;56967;43.538;-5.646;2023-04-01T14:56:41;102216.63;;;20.53
69704;BMP280;56967;43.538;-5.646;2023-04-01T15:02:03;102221.50;;;19.90
69704;BMP280;56967;43.538;-5.646;2023-04-01T15:07:25;102244.44;;;20.02
69704;BMP280;56967;43.538;-5.646;2023-04-01T15:13:04;102255.06;;;19.86
69704;BMP280;56967;43.538;-5.646;2023-04-01T15:21:17;102257.78;;;20.02
69704;BMP280;56967;43.538;-5.646;2023-04-01T15:27:06;102246.16;;;19.52
69704;BMP280;56967;43.538;-5.646;2023-04-01T15:31:52;102251.22;;;19.93
69704;BMP280;56967;43.538;-5.646;2023-04-01T15:34:44;102267.81;;;20.12
69704;BMP280;56967;43.538;-5.646;2023-04-01T15:37:17;102259.81;;;20.29
69704;BMP280;56967;43.538;-5.646;2023-04-01T15:45:35;102271.84;;;19.30
69704;BMP280;56967;43.538;-5.646;2023-04-01T15:51:31;102261.53;;;19.33
69704;BMP280;56967;43.538;-5.646;2023-04-01T15:57:00;102259.34;;;18.84
69704;BMP280;56967;43.538;-5.646;2023-04-01T16:11:04;102278.41;;;19.51
69704;BMP280;56967;43.538;-5.646;2023-04-01T16:13:45;102276.06;;;20.10
69704;BMP280;56967;43.538;-5.646;2023-04-01T16:23:55;102272.47;;;19.60
69704;BMP280;56967;43.538;-5.646;2023-04-01T16:29:17;102270.94;;;19.52
69704;BMP280;56967;43.538;-5.646;2023-04-01T16:32:17;102274.97;;;19.04
69704;BMP280;56967;43.538;-5.646;2023-04-01T16:34:58;102275.06;;;18.39
69704;BMP280;56967;43.538;-5.646;2023-04-01T16:38:43;102281.69;;;18.48
69704;BMP280;56967;43.538;-5.646;2023-04-01T16:41:17;102288.28;;;18.46
69704;BMP280;56967;43.538;-5.646;2023-04-01T16:43:48;102272.66;;;18.38
69704;BMP280;56967;43.538;-5.646;2023-04-01T16:46:36;102286.72;;;18.27
69704;BMP280;56967;43.538;-5.646;2023-04-01T16:49:39;102286.72;;;18.27
69704;BMP280;56967;43.538;-5.646;2023-04-01T17:21:25;102303.22;;;18.17
69704;BMP280;56967;43.538;-5.646;2023-04-01T17:24:03;102317.88;;;17.96
69704;BMP280;56967;43.538;-5.646;2023-04-01T17:26:39;102319.56;;;17.91
69704;BMP280;56967;43.538;-5.646;2023-04-01T17:35:19;102326.00;;;17.83
69704;BMP280;56967;43.538;-5.646;2023-04-01T17:43:45;102336.19;;;17.86
69704;BMP280;56967;43.538;-5.646;2023-04-01T17:58:05;102345.88;;;17.63
69704;BMP280;56967;43.538;-5.646;2023-04-01T18:06:07;102336.75;;;17.34
69704;BMP280;56967;43.538;-5.646;2023-04-01T18:09:37;102339.53;;;16.96
69704;BMP280;56967;43.538;-5.646;2023-04-01T18:20:07;102339.13;;;16.30
69704;BMP280;56967;43.538;-5.646;2023-04-01T18:22:44;102343.69;;;16.17
69704;BMP280;56967;43.538;-5.646;2023-04-01T18:25:34;102357.44;;;16.01
69704;BMP280;56967;43.538;-5.646;2023-04-01T18:33:36;102345.84;;;15.75
69704;BMP280;56967;43.538;-5.646;2023-04-01T18:36:24;102350.78;;;15.59
69704;BMP280;56967;43.538;-5.646;2023-04-01T18:39:03;102347.13;;;15.60
69704;BMP280;56967;43.538;-5.646;2023-04-01T18:44:52;102345.09;;;15.36
69704;BMP280;56967;43.538;-5.646;2023-04-01T18:48:37;102355.25;;;15.25
69704;BMP280;56967;43.538;-5.646;2023-04-01T18:50:53;102358.97;;;15.18
69704;BMP280;56967;43.538;-5.646;2023-04-01T18:53:37;102358.50;;;15.14
69704;BMP280;56967;43.538;-5.646;2023-04-01T18:56:05;102363.22;;;15.12
69704;BMP280;56967;43.538;-5.646;2023-04-01T19:04:09;102384.19;;;15.01
69704;BMP280;56967;43.538;-5.646;2023-04-01T19:20:30;102381.28;;;14.83
69704;BMP280;56967;43.538;-5.646;2023-04-01T19:25:40;102388.22;;;14.84
69704;BMP280;56967;43.538;-5.646;2023-04-01T19:31:34;102395.72;;;14.80
69704;BMP280;56967;43.538;-5.646;2023-04-01T19:36:52;102412.66;;;14.79
69704;BMP280;56967;43.538;-5.646;2023-04-01T19:45:40;102415.97;;;15.01
69704;BMP280;56967;43.538;-5.646;2023-04-01T19:48:26;102421.25;;;15.01
69704;BMP280;56967;43.538;-5.646;2023-04-01T19:51:09;102430.47;;;15.18
69704;BMP280;56967;43.538;-5.646;2023-04-01T20:01:38;102443.53;;;15.19
69704;BMP280;56967;43.538;-5.646;2023-04-01T20:12:02;102448.91;;;14.79
69704;BMP280;56967;43.538;-5.646;2023-04-01T20:19:59;102449.97;;;14.91
69704;BMP280;56967;43.538;-5.646;2023-04-01T20:22:59;102460.81;;;15.02
69704;BMP280;56967;43.538;-5.646;2023-04-01T20:28:05;102464.72;;;15.13
69704;BMP280;56967;43.538;-5.646;2023-04-01T20:33:42;102475.66;;;15.03
69704;BMP280;56967;43.538;-5.646;2023-04-01T20:36:31;102474.63;;;14.98
69704;BMP280;56967;43.538;-5.646;2023-04-01T20:39:25;102481.50;;;14.92
69704;BMP280;56967;43.538;-5.646;2023-04-01T20:42:26;102482.13;;;14.88
69704;BMP280;56967;43.538;-5.646;2023-04-01T20:47:35;102481.25;;;14.67
69704;BMP280;56967;43.538;-5.646;2023-04-01T20:50:29;102491.03;;;14.74
69704;BMP280;56967;43.538;-5.646;2023-04-01T20:53:16;102485.88;;;14.59
69704;BMP280;56967;43.538;-5.646;2023-04-01T20:55:58;102486.66;;;14.59
69704;BMP280;56967;43.538;-5.646;2023-04-01T20:58:58;102491.34;;;14.57
69704;BMP280;56967;43.538;-5.646;2023-04-01T21:01:47;102493.94;;;14.51
69704;BMP280;56967;43.538;-5.646;2023-04-01T21:12:34;102485.69;;;14.26
69704;BMP280;56967;43.538;-5.646;2023-04-01T21:17:50;102490.09;;;14.19
69704;BMP280;56967;43.538;-5.646;2023-04-01T21:23:29;102493.38;;;14.00
69704;BMP280;56967;43.538;-5.646;2023-04-01T21:46:08;102514.91;;;13.90
69704;BMP280;56967;43.538;-5.646;2023-04-01T21:48:56;102512.25;;;13.90
69704;BMP280;56967;43.538;-5.646;2023-04-01T22:11:08;102533.41;;;13.97
69704;BMP280;56967;43.538;-5.646;2023-04-01T22:18:42;102532.06;;;14.01
69704;BMP280;56967;43.538;-5.646;2023-04-01T22:21:25;102539.00;;;14.02
69704;BMP280;56967;43.538;-5.646;2023-04-01T22:24:07;102537.72;;;13.98
69704;BMP280;56967;43.538;-5.646;2023-04-01T22:29:07;102533.50;;;14.03
69704;BMP280;56967;43.538;-5.646;2023-04-01T22:34:46;102536.44;;;14.15
69704;BMP280;56967;43.538;-5.646;2023-04-01T22:42:40;102535.53;;;14.29
69704;BMP280;56967;43.538;-5.646;2023-04-01T22:48:12;102537.06;;;14.17
69704;BMP280;56967;43.538;-5.646;2023-04-01T22:53:43;102537.16;;;14.02
69704;BMP280;56967;43.538;-5.646;2023-04-01T22:56:34;102537.91;;;13.96
69704;BMP280;56967;43.538;-5.646;2023-04-01T22:59:17;102522.84;;;13.90
69704;BMP280;56967;43.538;-5.646;2023-04-01T23:01:51;102519.28;;;13.83
69704;BMP280;56967;43.538;-5.646;2023-04-01T23:04:24;102524.66;;;13.90
69704;BMP280;56967;43.538;-5.646;2023-04-01T23:06:56;102524.50;;;13.98
69704;BMP280;56967;43.538;-5.646;2023-04-01T23:09:26;102525.34;;;14.05
69704;BMP280;56967;43.538;-5.646;2023-04-01T23:11:59;102524.78;;;14.09
69704;BMP280;56967;43.538;-5.646;2023-04-01T23:14:48;102527.13;;;13.98
69704;BMP280;56967;43.538;-5.646;2023-04-01T23:28:54;102520.53;;;13.87
69704;BMP280;56967;43.538;-5.646;2023-04-01T23:31:27;102517.63;;;13.82
69704;BMP280;56967;43.538;-5.646;2023-04-01T23:33:59;102526.94;;;13.78
69704;BMP280;56967;43.538;-5.646;2023-04-01T23:36:26;102537.50;;;13.72
69704;BMP280;56967;43.538;-5.646;2023-04-01T23:38:52;102526.22;;;13.63
69704;BMP280;56967;43.538;-5.646;2023-04-01T23:41:33;102538.19;;;13.66
69704;BMP280;56967;43.538;-5.646;2023-04-01T23:44:04;102535.25;;;13.54
69704;BMP280;56967;43.538;-5.646;2023-04-01T23:46:32;102539.81;;;13.45
69704;BMP280;56967;43.538;-5.646;2023-04-01T23:48:58;102527.97;;;13.41
69704;BMP280;56967;43.538;-5.646;2023-04-01T23:51:27;102525.72;;;13.38
69704;BMP280;56967;43.538;-5.646;2023-04-01T23:54:01;102522.41;;;13.51
69704;BMP280;56967;43.538;-5.646;2023-04-01T23:56:35;102522.53;;;13.43
69704;BMP280;56967;43.538;-5.646;2023-04-01T23:59:02;102523.28;;;13.22
